JNA357 RKSI-RORS
Flight info
| Callsign | JNA357 |
|---|---|
| Flight time | N/A |
| Altitude | 36000 |
| Route | BOPTA2Y BOPTA Z51 BEDES Y711 KIDOS Z81 CJU Y572 RUGMA Y579 RUSAR Y27 YURIX Y62 GANAS Y576 DIANA |
| Aircraft | B738/M-SDE2E3FGHIRWXY/LB1 |
Departure
| Time | 2026-05-01 10:56 |
|---|---|
| Airport | Incheon International Airport (RKSI) |
Arrival
| Time | N/A |
|---|---|
| Airport | Shimojishima Airport (RORS) |
| Time | Latitude | Longitude | Altitude | Speed | Heading |
|---|---|---|---|---|---|
| 2026-05-01 10:09 | 37.46250 | 126.43481 | 32 ft | 0 kts | 275° |
| 2026-05-01 10:20 | 37.46250 | 126.43482 | 32 ft | 0 kts | 275° |
| 2026-05-01 10:27 | 37.46246 | 126.43519 | 29 ft | 4 kts | 279° |
| 2026-05-01 10:27 | 37.46237 | 126.43586 | 31 ft | 4 kts | 275° |
| 2026-05-01 10:28 | 37.46239 | 126.43617 | 31 ft | 4 kts | 241° |
| 2026-05-01 10:28 | 37.46273 | 126.43630 | 29 ft | 4 kts | 140° |
| 2026-05-01 10:28 | 37.46292 | 126.43610 | 30 ft | 2 kts | 144° |
| 2026-05-01 10:32 | 37.46292 | 126.43609 | 30 ft | 0 kts | 145° |
| 2026-05-01 10:35 | 37.46202 | 126.43660 | 32 ft | 11 kts | 191° |
| 2026-05-01 10:35 | 37.46149 | 126.43599 | 32 ft | 10 kts | 235° |
| 2026-05-01 10:35 | 37.46107 | 126.43526 | 32 ft | 10 kts | 235° |
| 2026-05-01 10:35 | 37.46067 | 126.43454 | 32 ft | 10 kts | 234° |
| 2026-05-01 10:36 | 37.45990 | 126.43317 | 32 ft | 9 kts | 236° |
| 2026-05-01 10:36 | 37.45956 | 126.43255 | 32 ft | 4 kts | 235° |
| 2026-05-01 10:36 | 37.45953 | 126.43251 | 32 ft | 0 kts | 235° |
| 2026-05-01 10:37 | 37.45870 | 126.43232 | 32 ft | 10 kts | 146° |
| 2026-05-01 10:37 | 37.45814 | 126.43281 | 32 ft | 10 kts | 146° |
| 2026-05-01 10:38 | 37.45758 | 126.43328 | 32 ft | 9 kts | 146° |
| 2026-05-01 10:38 | 37.45704 | 126.43374 | 31 ft | 9 kts | 142° |
| 2026-05-01 10:38 | 37.45654 | 126.43423 | 29 ft | 9 kts | 142° |
| 2026-05-01 10:38 | 37.45604 | 126.43469 | 30 ft | 9 kts | 145° |
| 2026-05-01 10:39 | 37.45555 | 126.43512 | 32 ft | 9 kts | 143° |
| 2026-05-01 10:39 | 37.45508 | 126.43555 | 30 ft | 8 kts | 144° |
| 2026-05-01 10:39 | 37.45462 | 126.43596 | 31 ft | 8 kts | 145° |
| 2026-05-01 10:39 | 37.45417 | 126.43635 | 31 ft | 8 kts | 146° |
| 2026-05-01 10:40 | 37.45373 | 126.43672 | 32 ft | 8 kts | 146° |
| 2026-05-01 10:40 | 37.45326 | 126.43716 | 31 ft | 12 kts | 143° |
| 2026-05-01 10:40 | 37.45252 | 126.43783 | 32 ft | 13 kts | 145° |
| 2026-05-01 10:40 | 37.45178 | 126.43849 | 29 ft | 13 kts | 144° |
| 2026-05-01 10:41 | 37.45107 | 126.43913 | 32 ft | 12 kts | 143° |
| 2026-05-01 10:41 | 37.45038 | 126.43976 | 32 ft | 12 kts | 144° |
| 2026-05-01 10:41 | 37.44903 | 126.44095 | 32 ft | 12 kts | 146° |
| 2026-05-01 10:42 | 37.44838 | 126.44152 | 32 ft | 11 kts | 143° |
| 2026-05-01 10:42 | 37.44776 | 126.44209 | 32 ft | 11 kts | 144° |
| 2026-05-01 10:42 | 37.44715 | 126.44264 | 30 ft | 11 kts | 145° |
| 2026-05-01 10:42 | 37.44655 | 126.44315 | 31 ft | 10 kts | 146° |
| 2026-05-01 10:43 | 37.44598 | 126.44367 | 31 ft | 10 kts | 145° |
| 2026-05-01 10:43 | 37.44542 | 126.44415 | 31 ft | 10 kts | 151° |
| 2026-05-01 10:43 | 37.44485 | 126.44403 | 30 ft | 0 kts | 229° |
| 2026-05-01 10:46 | 37.44486 | 126.44403 | 31 ft | 0 kts | 229° |
| 2026-05-01 10:47 | 37.44472 | 126.44380 | 32 ft | 10 kts | 233° |
| 2026-05-01 10:47 | 37.44461 | 126.44361 | 32 ft | 0 kts | 233° |
| 2026-05-01 10:49 | 37.44460 | 126.44360 | 32 ft | 1 kts | 233° |
| 2026-05-01 10:49 | 37.44440 | 126.44325 | 32 ft | 6 kts | 234° |
| 2026-05-01 10:50 | 37.44416 | 126.44283 | 32 ft | 2 kts | 235° |
| 2026-05-01 10:55 | 37.44412 | 126.44276 | 32 ft | 5 kts | 235° |
| 2026-05-01 10:55 | 37.44377 | 126.44212 | 31 ft | 10 kts | 236° |
| 2026-05-01 10:55 | 37.44385 | 126.44133 | 32 ft | 10 kts | 315° |
| 2026-05-01 10:55 | 37.44445 | 126.44081 | 32 ft | 15 kts | 326° |
| 2026-05-01 10:56 | 37.44710 | 126.43846 | 30 ft | 81 kts | 325° |
| 2026-05-01 10:56 | 37.45348 | 126.43277 | 34 ft | 141 kts | 322° |
| 2026-05-01 10:56 | 37.46214 | 126.42501 | 418 ft | 159 kts | 318° |
| 2026-05-01 10:56 | 37.47136 | 126.41704 | 1174 ft | 157 kts | 321° |
| 2026-05-01 10:57 | 37.47868 | 126.40754 | 1908 ft | 153 kts | 290° |
| 2026-05-01 10:57 | 37.48439 | 126.39509 | 2193 ft | 182 kts | 311° |
| 2026-05-01 10:57 | 37.49364 | 126.38276 | 2431 ft | 205 kts | 309° |
| 2026-05-01 10:57 | 37.50248 | 126.36781 | 2688 ft | 221 kts | 290° |
| 2026-05-01 10:58 | 37.50460 | 126.34775 | 2954 ft | 244 kts | 272° |
| 2026-05-01 10:58 | 37.50495 | 126.32603 | 3593 ft | 250 kts | 272° |
| 2026-05-01 10:58 | 37.50540 | 126.30392 | 4337 ft | 255 kts | 273° |
| 2026-05-01 10:58 | 37.50590 | 126.28139 | 5064 ft | 259 kts | 274° |
| 2026-05-01 10:59 | 37.50643 | 126.25870 | 5869 ft | 260 kts | 274° |
| 2026-05-01 10:59 | 37.50697 | 126.23581 | 6591 ft | 263 kts | 275° |
| 2026-05-01 10:59 | 37.50719 | 126.21271 | 7322 ft | 267 kts | 268° |
| 2026-05-01 10:59 | 37.50112 | 126.19025 | 7987 ft | 281 kts | 241° |
| 2026-05-01 11:00 | 37.48717 | 126.17248 | 8673 ft | 293 kts | 217° |
| 2026-05-01 11:00 | 37.46809 | 126.16241 | 9345 ft | 306 kts | 193° |
| 2026-05-01 11:00 | 37.44660 | 126.16263 | 9983 ft | 315 kts | 169° |
| 2026-05-01 11:00 | 37.42573 | 126.17242 | 10426 ft | 329 kts | 155° |
| 2026-05-01 11:01 | 37.40452 | 126.18566 | 10581 ft | 351 kts | 153° |
| 2026-05-01 11:01 | 37.38229 | 126.20043 | 10746 ft | 371 kts | 152° |
| 2026-05-01 11:01 | 37.35892 | 126.21610 | 10901 ft | 390 kts | 152° |
| 2026-05-01 11:01 | 37.33463 | 126.23228 | 11304 ft | 399 kts | 152° |
| 2026-05-01 11:02 | 37.30992 | 126.24855 | 11904 ft | 403 kts | 152° |
| 2026-05-01 11:02 | 37.28497 | 126.26482 | 12531 ft | 406 kts | 152° |
| 2026-05-01 11:02 | 37.25965 | 126.28121 | 13120 ft | 411 kts | 153° |
| 2026-05-01 11:02 | 37.23414 | 126.29765 | 13751 ft | 415 kts | 153° |
| 2026-05-01 11:03 | 37.20821 | 126.31431 | 14319 ft | 420 kts | 153° |
| 2026-05-01 11:03 | 37.18210 | 126.33106 | 14908 ft | 423 kts | 153° |
| 2026-05-01 11:03 | 37.15578 | 126.34793 | 15513 ft | 427 kts | 153° |
| 2026-05-01 11:03 | 37.12923 | 126.36493 | 16084 ft | 431 kts | 153° |
| 2026-05-01 11:04 | 37.10248 | 126.38205 | 16669 ft | 435 kts | 153° |
| 2026-05-01 11:04 | 37.07543 | 126.39935 | 17230 ft | 438 kts | 153° |
| 2026-05-01 11:04 | 37.04816 | 126.41678 | 17790 ft | 443 kts | 154° |
| 2026-05-01 11:04 | 37.02094 | 126.43416 | 18308 ft | 447 kts | 154° |
| 2026-05-01 11:05 | 36.99313 | 126.45191 | 18774 ft | 451 kts | 154° |
| 2026-05-01 11:05 | 36.96469 | 126.47004 | 19236 ft | 455 kts | 154° |
| 2026-05-01 11:05 | 36.93674 | 126.48785 | 19680 ft | 459 kts | 154° |
| 2026-05-01 11:05 | 36.90781 | 126.50627 | 20137 ft | 463 kts | 154° |
| 2026-05-01 11:06 | 36.87926 | 126.52443 | 20519 ft | 468 kts | 154° |
| 2026-05-01 11:06 | 36.84978 | 126.54317 | 20926 ft | 473 kts | 155° |
| 2026-05-01 11:06 | 36.82068 | 126.56165 | 21331 ft | 477 kts | 155° |
| 2026-05-01 11:07 | 36.76107 | 126.59946 | 22165 ft | 484 kts | 155° |
| 2026-05-01 11:07 | 36.73011 | 126.61775 | 22561 ft | 486 kts | 161° |
| 2026-05-01 11:07 | 36.69837 | 126.63025 | 22932 ft | 486 kts | 169° |
| 2026-05-01 11:07 | 36.66554 | 126.64085 | 23352 ft | 489 kts | 170° |
| 2026-05-01 11:08 | 36.63243 | 126.65127 | 23690 ft | 492 kts | 170° |
| 2026-05-01 11:08 | 36.59910 | 126.66189 | 23931 ft | 497 kts | 170° |
| 2026-05-01 11:08 | 36.53177 | 126.68409 | 24531 ft | 503 kts | 169° |
| 2026-05-01 11:09 | 36.49787 | 126.69549 | 24857 ft | 506 kts | 169° |
| 2026-05-01 11:09 | 36.46383 | 126.70695 | 25164 ft | 508 kts | 170° |
| 2026-05-01 11:09 | 36.42960 | 126.71842 | 25449 ft | 511 kts | 170° |
| 2026-05-01 11:10 | 36.36027 | 126.73786 | 26000 ft | 508 kts | 180° |
| 2026-05-01 11:10 | 36.33648 | 126.74062 | 26216 ft | 507 kts | 182° |
| 2026-05-01 11:10 | 36.30137 | 126.74386 | 26520 ft | 508 kts | 183° |
| 2026-05-01 11:10 | 36.26596 | 126.74689 | 26802 ft | 510 kts | 183° |
| 2026-05-01 11:11 | 36.23044 | 126.75009 | 27047 ft | 513 kts | 183° |
| 2026-05-01 11:11 | 36.18388 | 126.75469 | 27294 ft | 518 kts | 182° |
| 2026-05-01 11:11 | 36.15963 | 126.75724 | 27517 ft | 518 kts | 182° |
| 2026-05-01 11:11 | 36.12365 | 126.76115 | 27861 ft | 518 kts | 182° |
| 2026-05-01 11:12 | 36.08772 | 126.76509 | 28122 ft | 520 kts | 183° |
| 2026-05-01 11:12 | 36.05213 | 126.76896 | 28350 ft | 522 kts | 183° |
| 2026-05-01 11:12 | 36.01536 | 126.77293 | 28621 ft | 523 kts | 183° |
| 2026-05-01 11:12 | 35.97914 | 126.77684 | 28974 ft | 520 kts | 183° |
| 2026-05-01 11:13 | 35.94405 | 126.78067 | 29875 ft | 507 kts | 184° |
| 2026-05-01 11:13 | 35.90865 | 126.78430 | 30378 ft | 501 kts | 186° |
| 2026-05-01 11:13 | 35.84007 | 126.78023 | 30554 ft | 497 kts | 195° |
| 2026-05-01 11:14 | 35.80564 | 126.77577 | 30807 ft | 497 kts | 196° |
| 2026-05-01 11:14 | 35.77130 | 126.77137 | 31142 ft | 496 kts | 195° |
| 2026-05-01 11:14 | 35.73716 | 126.76726 | 31522 ft | 494 kts | 195° |
| 2026-05-01 11:14 | 35.70284 | 126.76338 | 31797 ft | 494 kts | 195° |
| 2026-05-01 11:15 | 35.66845 | 126.75963 | 31993 ft | 496 kts | 195° |
| 2026-05-01 11:15 | 35.63408 | 126.75596 | 32218 ft | 497 kts | 195° |
| 2026-05-01 11:15 | 35.59958 | 126.75231 | 32502 ft | 497 kts | 195° |
| 2026-05-01 11:15 | 35.56517 | 126.74866 | 32744 ft | 497 kts | 195° |
| 2026-05-01 11:16 | 35.53020 | 126.74492 | 33006 ft | 497 kts | 195° |
| 2026-05-01 11:16 | 35.49588 | 126.74126 | 33349 ft | 495 kts | 196° |
| 2026-05-01 11:16 | 35.46158 | 126.73762 | 33658 ft | 494 kts | 196° |
| 2026-05-01 11:16 | 35.42730 | 126.73397 | 33881 ft | 495 kts | 196° |
| 2026-05-01 11:17 | 35.39343 | 126.73036 | 34050 ft | 496 kts | 196° |
| 2026-05-01 11:17 | 35.35868 | 126.72668 | 34319 ft | 495 kts | 196° |
| 2026-05-01 11:17 | 35.32439 | 126.72307 | 34584 ft | 493 kts | 196° |
| 2026-05-01 11:17 | 35.29020 | 126.71946 | 34777 ft | 494 kts | 196° |
| 2026-05-01 11:18 | 35.25599 | 126.71582 | 34918 ft | 495 kts | 196° |
| 2026-05-01 11:18 | 35.22206 | 126.71223 | 35119 ft | 495 kts | 196° |
| 2026-05-01 11:18 | 35.18781 | 126.70863 | 35344 ft | 493 kts | 196° |
| 2026-05-01 11:18 | 35.15374 | 126.70506 | 35645 ft | 491 kts | 196° |
| 2026-05-01 11:19 | 35.11972 | 126.70147 | 35867 ft | 490 kts | 196° |
| 2026-05-01 11:19 | 35.08565 | 126.69786 | 35982 ft | 492 kts | 196° |
| 2026-05-01 11:19 | 35.01699 | 126.69051 | 35991 ft | 498 kts | 196° |
| 2026-05-01 11:20 | 34.94754 | 126.68314 | 35999 ft | 503 kts | 196° |
| 2026-05-01 11:20 | 34.87756 | 126.67578 | 35996 ft | 506 kts | 196° |
| 2026-05-01 11:21 | 34.80728 | 126.66842 | 35980 ft | 507 kts | 196° |
| 2026-05-01 11:21 | 34.73745 | 126.66117 | 35974 ft | 499 kts | 195° |
| 2026-05-01 11:22 | 34.66876 | 126.65400 | 35986 ft | 494 kts | 195° |
| 2026-05-01 11:22 | 34.60049 | 126.64679 | 35984 ft | 493 kts | 195° |
| 2026-05-01 11:23 | 34.53203 | 126.63959 | 36000 ft | 493 kts | 195° |
| 2026-05-01 11:23 | 34.46353 | 126.63243 | 36005 ft | 494 kts | 195° |
| 2026-05-01 11:24 | 34.39499 | 126.62524 | 35982 ft | 495 kts | 195° |
| 2026-05-01 11:25 | 34.29191 | 126.61408 | 36003 ft | 496 kts | 195° |
| 2026-05-01 11:25 | 34.18732 | 126.60297 | 35984 ft | 497 kts | 195° |
| 2026-05-01 11:26 | 34.08398 | 126.59225 | 36014 ft | 497 kts | 195° |
| 2026-05-01 11:27 | 34.01502 | 126.58507 | 36012 ft | 498 kts | 195° |
| 2026-05-01 11:27 | 33.94602 | 126.57790 | 36015 ft | 498 kts | 195° |
| 2026-05-01 11:28 | 33.87700 | 126.57073 | 36025 ft | 498 kts | 195° |
| 2026-05-01 11:28 | 33.80704 | 126.56932 | 36028 ft | 513 kts | 183° |
| 2026-05-01 11:29 | 33.70031 | 126.58412 | 36022 ft | 515 kts | 182° |
| 2026-05-01 11:30 | 33.59368 | 126.59811 | 36028 ft | 513 kts | 182° |
| 2026-05-01 11:30 | 33.52268 | 126.60688 | 36028 ft | 513 kts | 182° |
| 2026-05-01 11:31 | 33.45154 | 126.61571 | 36039 ft | 514 kts | 182° |
| 2026-05-01 11:31 | 33.38036 | 126.62585 | 36014 ft | 521 kts | 176° |
| 2026-05-01 11:32 | 33.31013 | 126.65162 | 36015 ft | 530 kts | 167° |
| 2026-05-01 11:32 | 33.24032 | 126.68013 | 36029 ft | 529 kts | 169° |
| 2026-05-01 11:33 | 33.17023 | 126.70715 | 36030 ft | 529 kts | 169° |
| 2026-05-01 11:33 | 33.10016 | 126.73429 | 36030 ft | 530 kts | 169° |
| 2026-05-01 11:34 | 33.03019 | 126.76147 | 36020 ft | 529 kts | 169° |
| 2026-05-01 11:34 | 32.96020 | 126.78857 | 36031 ft | 529 kts | 169° |
| 2026-05-01 11:35 | 32.89008 | 126.81574 | 36039 ft | 529 kts | 169° |
| 2026-05-01 11:35 | 32.82001 | 126.84286 | 36037 ft | 530 kts | 169° |
| 2026-05-01 11:36 | 32.74993 | 126.86994 | 36040 ft | 530 kts | 169° |
| 2026-05-01 11:36 | 32.67991 | 126.89695 | 36041 ft | 529 kts | 169° |
| 2026-05-01 11:37 | 32.60981 | 126.92394 | 36040 ft | 529 kts | 169° |
| 2026-05-01 11:37 | 32.53978 | 126.95087 | 36035 ft | 529 kts | 168° |
| 2026-05-01 11:38 | 32.46981 | 126.97715 | 36041 ft | 526 kts | 171° |
| 2026-05-01 11:38 | 32.39943 | 127.00036 | 36040 ft | 525 kts | 172° |
| 2026-05-01 11:39 | 32.32903 | 127.02347 | 36026 ft | 525 kts | 171° |
| 2026-05-01 11:39 | 32.25874 | 127.04711 | 36045 ft | 525 kts | 171° |
| 2026-05-01 11:40 | 32.18857 | 127.07076 | 36047 ft | 524 kts | 171° |
| 2026-05-01 11:40 | 32.11851 | 127.09431 | 36052 ft | 524 kts | 171° |
| 2026-05-01 11:41 | 32.04847 | 127.11782 | 36042 ft | 523 kts | 171° |
| 2026-05-01 11:41 | 31.97852 | 127.14119 | 36048 ft | 522 kts | 171° |
| 2026-05-01 11:42 | 31.90911 | 127.16427 | 36049 ft | 522 kts | 171° |
| 2026-05-01 11:42 | 31.83873 | 127.18765 | 36030 ft | 521 kts | 170° |
| 2026-05-01 11:43 | 31.77663 | 127.20827 | 36048 ft | 520 kts | 170° |
| 2026-05-01 11:43 | 31.70755 | 127.23118 | 36054 ft | 519 kts | 171° |
| 2026-05-01 11:44 | 31.60318 | 127.26570 | 36038 ft | 520 kts | 170° |
| 2026-05-01 11:44 | 31.53378 | 127.28862 | 36056 ft | 519 kts | 170° |
| 2026-05-01 11:45 | 31.46418 | 127.31157 | 36063 ft | 519 kts | 170° |
| 2026-05-01 11:45 | 31.39455 | 127.33449 | 36064 ft | 519 kts | 170° |
| 2026-05-01 11:46 | 31.32504 | 127.35735 | 36058 ft | 518 kts | 170° |
| 2026-05-01 11:46 | 31.25567 | 127.38012 | 36058 ft | 518 kts | 170° |
| 2026-05-01 11:47 | 31.18639 | 127.40307 | 36068 ft | 517 kts | 170° |
| 2026-05-01 11:47 | 31.11724 | 127.42617 | 36065 ft | 517 kts | 169° |
| 2026-05-01 11:48 | 31.04807 | 127.44923 | 36072 ft | 516 kts | 169° |
| 2026-05-01 11:48 | 30.97896 | 127.47219 | 36077 ft | 516 kts | 169° |
| 2026-05-01 11:49 | 30.90991 | 127.49509 | 36074 ft | 516 kts | 169° |
| 2026-05-01 11:49 | 30.84074 | 127.51798 | 36059 ft | 516 kts | 169° |
| 2026-05-01 11:50 | 30.77171 | 127.54081 | 36068 ft | 515 kts | 169° |
| 2026-05-01 11:50 | 30.70277 | 127.56357 | 36081 ft | 515 kts | 169° |
| 2026-05-01 11:51 | 30.63378 | 127.58631 | 36079 ft | 515 kts | 169° |
| 2026-05-01 11:51 | 30.56492 | 127.60897 | 36074 ft | 514 kts | 169° |
| 2026-05-01 11:52 | 30.49615 | 127.63158 | 36084 ft | 514 kts | 169° |
| 2026-05-01 11:52 | 30.42731 | 127.65417 | 36084 ft | 514 kts | 169° |
| 2026-05-01 11:53 | 30.35856 | 127.67671 | 36087 ft | 513 kts | 169° |
| 2026-05-01 11:53 | 30.28987 | 127.69919 | 36088 ft | 513 kts | 169° |
| 2026-05-01 11:54 | 30.22116 | 127.72160 | 36079 ft | 513 kts | 169° |
| 2026-05-01 11:54 | 30.15238 | 127.74393 | 36088 ft | 513 kts | 169° |
| 2026-05-01 11:55 | 30.08364 | 127.76623 | 36072 ft | 513 kts | 169° |
| 2026-05-01 11:55 | 30.01500 | 127.78848 | 36085 ft | 512 kts | 169° |
| 2026-05-01 11:56 | 29.94633 | 127.81071 | 36085 ft | 512 kts | 169° |
| 2026-05-01 11:56 | 29.87754 | 127.83115 | 36085 ft | 507 kts | 176° |
| 2026-05-01 11:57 | 29.80821 | 127.83328 | 36104 ft | 493 kts | 191° |
| 2026-05-01 11:57 | 29.73991 | 127.82594 | 36092 ft | 493 kts | 191° |
| 2026-05-01 11:58 | 29.67165 | 127.81871 | 36091 ft | 494 kts | 191° |
| 2026-05-01 11:59 | 29.56942 | 127.80876 | 36090 ft | 493 kts | 190° |
| 2026-05-01 11:59 | 29.50103 | 127.80231 | 36094 ft | 493 kts | 190° |
| 2026-05-01 12:00 | 29.39862 | 127.79264 | 36076 ft | 492 kts | 190° |
| 2026-05-01 12:01 | 29.29629 | 127.78297 | 36099 ft | 491 kts | 190° |
| 2026-05-01 12:01 | 29.22825 | 127.77654 | 36096 ft | 491 kts | 190° |
| 2026-05-01 12:02 | 29.16002 | 127.77010 | 36087 ft | 491 kts | 190° |
| 2026-05-01 12:02 | 29.09198 | 127.76369 | 36097 ft | 490 kts | 190° |
| 2026-05-01 12:03 | 29.02393 | 127.75729 | 36099 ft | 490 kts | 190° |
| 2026-05-01 12:03 | 28.95591 | 127.75090 | 36077 ft | 490 kts | 190° |
| 2026-05-01 12:04 | 28.88796 | 127.74453 | 36098 ft | 490 kts | 189° |
| 2026-05-01 12:04 | 28.82005 | 127.73817 | 36102 ft | 489 kts | 189° |
| 2026-05-01 12:05 | 28.75225 | 127.73182 | 36098 ft | 489 kts | 189° |
| 2026-05-01 12:05 | 28.65049 | 127.72232 | 36097 ft | 488 kts | 189° |
| 2026-05-01 12:06 | 28.58283 | 127.71601 | 36105 ft | 488 kts | 189° |
| 2026-05-01 12:06 | 28.51523 | 127.70971 | 36102 ft | 488 kts | 189° |
| 2026-05-01 12:07 | 28.44760 | 127.70342 | 36105 ft | 487 kts | 189° |
| 2026-05-01 12:07 | 28.38014 | 127.69716 | 36103 ft | 487 kts | 189° |
| 2026-05-01 12:08 | 28.31267 | 127.69089 | 36104 ft | 486 kts | 189° |
| 2026-05-01 12:08 | 28.24526 | 127.68465 | 36095 ft | 486 kts | 189° |
| 2026-05-01 12:09 | 28.17788 | 127.67841 | 36101 ft | 485 kts | 189° |
| 2026-05-01 12:09 | 28.11056 | 127.67219 | 36104 ft | 485 kts | 189° |
| 2026-05-01 12:10 | 28.01001 | 127.66291 | 36104 ft | 485 kts | 189° |
| 2026-05-01 12:11 | 27.90856 | 127.65356 | 36104 ft | 485 kts | 189° |
| 2026-05-01 12:11 | 27.84168 | 127.64741 | 36103 ft | 485 kts | 189° |
| 2026-05-01 12:12 | 27.77438 | 127.64123 | 36101 ft | 485 kts | 189° |
| 2026-05-01 12:12 | 27.70704 | 127.63505 | 36102 ft | 485 kts | 189° |
| 2026-05-01 12:13 | 27.63976 | 127.62888 | 36102 ft | 485 kts | 189° |
| 2026-05-01 12:13 | 27.57196 | 127.62268 | 36085 ft | 485 kts | 188° |
| 2026-05-01 12:14 | 27.50546 | 127.61241 | 36097 ft | 478 kts | 201° |
| 2026-05-01 12:14 | 27.44567 | 127.58226 | 36095 ft | 467 kts | 218° |
| 2026-05-01 12:15 | 27.39313 | 127.53956 | 36105 ft | 465 kts | 221° |
| 2026-05-01 12:15 | 27.34095 | 127.49651 | 36096 ft | 466 kts | 220° |
| 2026-05-01 12:16 | 27.29728 | 127.46092 | 36097 ft | 466 kts | 220° |
| 2026-05-01 12:16 | 27.24459 | 127.41835 | 36099 ft | 467 kts | 220° |
| 2026-05-01 12:17 | 27.19177 | 127.37583 | 36084 ft | 467 kts | 220° |
| 2026-05-01 12:17 | 27.13892 | 127.33335 | 36096 ft | 467 kts | 220° |
| 2026-05-01 12:18 | 27.08611 | 127.29093 | 36104 ft | 467 kts | 220° |
| 2026-05-01 12:18 | 27.03318 | 127.24847 | 36103 ft | 467 kts | 220° |
| 2026-05-01 12:19 | 26.98029 | 127.20607 | 36093 ft | 468 kts | 220° |
| 2026-05-01 12:19 | 26.92739 | 127.16372 | 36103 ft | 468 kts | 220° |
| 2026-05-01 12:20 | 26.87440 | 127.12134 | 36101 ft | 468 kts | 220° |
| 2026-05-01 12:20 | 26.82136 | 127.07898 | 36097 ft | 468 kts | 220° |
| 2026-05-01 12:21 | 26.76840 | 127.03673 | 36093 ft | 467 kts | 220° |
| 2026-05-01 12:21 | 26.71548 | 126.99457 | 36100 ft | 467 kts | 220° |
| 2026-05-01 12:22 | 26.66255 | 126.95243 | 36098 ft | 467 kts | 220° |
| 2026-05-01 12:22 | 26.60958 | 126.91032 | 36085 ft | 467 kts | 220° |
| 2026-05-01 12:23 | 26.55658 | 126.86824 | 36102 ft | 467 kts | 220° |
| 2026-05-01 12:23 | 26.50366 | 126.82626 | 36096 ft | 467 kts | 220° |
| 2026-05-01 12:24 | 26.45069 | 126.78428 | 36092 ft | 467 kts | 220° |
| 2026-05-01 12:24 | 26.39774 | 126.74237 | 36091 ft | 467 kts | 220° |
| 2026-05-01 12:25 | 26.32067 | 126.67677 | 36098 ft | 463 kts | 224° |
| 2026-05-01 12:26 | 26.27099 | 126.63085 | 36090 ft | 463 kts | 224° |
| 2026-05-01 12:26 | 26.19612 | 126.56277 | 36098 ft | 463 kts | 224° |
| 2026-05-01 12:27 | 26.12217 | 126.49597 | 36094 ft | 462 kts | 224° |
| 2026-05-01 12:28 | 26.04790 | 126.42820 | 36093 ft | 462 kts | 224° |
| 2026-05-01 12:29 | 26.04589 | 126.42637 | 36093 ft | 462 kts | 224° |
| 2026-05-01 12:32 | 26.04532 | 126.42584 | 37195 ft | 462 kts | 224° |
| 2026-05-01 12:32 | 26.03499 | 126.41641 | 37160 ft | 461 kts | 220° |